Time;durP1;ratioP1;P1;durP2;ratioP2;P2;SDS_P1;SDS_P2;PMS_P1;PMS_P2;Temp;Humidity;BMP_temperature;BMP_pressure;BME280_temperature;BME280_humidity;BME280_pressure;Samples;Min_cycle;Max_cycle;Signal;HPM_P1;HPM_P2
2021/06/29 00:02:18;;;;;;;16.33;6.27;;;;;;;17.03;60.02;100935.81;4995718;28;20081;-58
2021/06/29 00:04:47;;;;;;;14.67;6.93;;;;;;;17.00;59.86;100931.63;4987520;28;20130;-60
2021/06/29 00:07:14;;;;;;;21.33;8.07;;;;;;;16.97;60.18;100918.13;4983416;28;20047;-58
2021/06/29 00:09:41;;;;;;;12.93;6.40;;;;;;;16.85;60.30;100894.41;4979710;28;20554;-60
2021/06/29 00:12:09;;;;;;;16.97;7.23;;;;;;;16.92;60.38;100912.63;4997771;28;20129;-61
2021/06/29 00:14:36;;;;;;;20.37;6.50;;;;;;;16.89;60.22;100915.19;4988112;28;20145;-60
2021/06/29 00:17:02;;;;;;;17.07;6.77;;;;;;;16.89;60.34;100906.75;4992801;28;20101;-60
2021/06/29 00:19:30;;;;;;;19.73;7.10;;;;;;;16.81;60.38;100900.69;4989974;28;20054;-61
2021/06/29 00:21:56;;;;;;;14.87;6.53;;;;;;;16.84;60.34;100909.69;4993036;28;20074;-62
2021/06/29 00:24:23;;;;;;;15.73;7.17;;;;;;;16.79;60.57;100893.72;4993578;28;20081;-60
2021/06/29 00:26:50;;;;;;;17.93;7.70;;;;;;;16.84;60.56;100904.03;4985916;28;20126;-58
2021/06/29 00:29:17;;;;;;;16.57;7.40;;;;;;;16.78;60.91;100892.84;4990192;28;20038;-60
2021/06/29 00:31:44;;;;;;;15.70;6.00;;;;;;;16.84;61.00;100898.41;4982782;28;20047;-59
2021/06/29 00:34:14;;;;;;;22.87;6.50;;;;;;;16.83;60.91;100885.44;4983331;28;20046;-60
2021/06/29 00:36:41;;;;;;;16.33;7.15;;;;;;;16.71;60.71;100881.13;4991228;28;20508;-57
2021/06/29 00:39:07;;;;;;;13.97;6.97;;;;;;;16.74;60.87;100886.16;4984457;28;20077;-60
2021/06/29 00:41:34;;;;;;;15.03;7.40;;;;;;;16.69;61.26;100886.25;4980971;28;20122;-61
2021/06/29 00:44:01;;;;;;;15.23;8.00;;;;;;;16.67;61.14;100879.25;4990632;28;20130;-60
2021/06/29 00:46:28;;;;;;;14.23;8.20;;;;;;;16.62;61.07;100880.22;4988497;28;20140;-60
2021/06/29 00:48:55;;;;;;;16.40;8.00;;;;;;;16.63;61.52;100881.88;4989007;28;20050;-64
2021/06/29 00:51:22;;;;;;;17.07;6.77;;;;;;;16.54;61.44;100866.81;4980730;28;20078;-63
2021/06/29 00:53:49;;;;;;;15.03;7.00;;;;;;;16.62;61.57;100870.91;4984027;28;20118;-64
2021/06/29 00:56:19;;;;;;;14.70;6.80;;;;;;;16.57;61.48;100883.94;4981298;28;20133;-63
2021/06/29 00:58:47;;;;;;;19.95;7.90;;;;;;;16.58;61.64;100881.97;4982520;28;20050;-60
2021/06/29 01:01:15;;;;;;;13.27;6.40;;;;;;;16.54;61.57;100878.94;4994602;28;20050;-59
2021/06/29 01:03:42;;;;;;;15.83;6.93;;;;;;;16.48;61.45;100856.81;4996102;28;20045;-60
2021/06/29 01:06:12;;;;;;;15.97;8.27;;;;;;;16.55;61.26;100869.34;5006282;28;20461;-61
2021/06/29 01:08:40;;;;;;;22.17;7.55;;;;;;;16.48;61.45;100865.28;4991921;28;20471;-65
2021/06/29 01:11:07;;;;;;;16.97;7.30;;;;;;;16.50;61.44;100860.16;4976927;28;20757;-61
2021/06/29 01:13:39;;;;;;;21.23;7.20;;;;;;;16.44;61.47;100875.47;4981697;28;20078;-63
2021/06/29 01:16:06;;;;;;;19.47;8.63;;;;;;;16.41;61.68;100867.66;4995100;28;20125;-61
2021/06/29 01:18:38;;;;;;;21.03;8.00;;;;;;;16.39;61.91;100864.31;4990313;28;20051;-60
2021/06/29 01:21:11;;;;;;;19.97;7.73;;;;;;;16.38;61.86;100862.66;4990516;28;20046;-60
2021/06/29 01:23:39;;;;;;;17.40;6.70;;;;;;;16.39;62.08;100869.97;4983132;28;20513;-61
2021/06/29 01:26:16;;;;;;;21.57;7.17;;;;;;;16.35;61.79;100864.13;4988730;28;20085;-60
2021/06/29 01:28:51;;;;;;;21.50;7.43;;;;;;;16.33;62.05;100861.59;4985073;28;20117;-60
2021/06/29 01:31:19;;;;;;;19.93;7.63;;;;;;;16.26;62.17;100849.91;4987000;28;20138;-60
2021/06/29 01:33:47;;;;;;;19.57;8.00;;;;;;;16.29;62.10;100852.09;4994529;28;20101;-61
2021/06/29 01:36:16;;;;;;;20.00;8.17;;;;;;;16.25;62.32;100848.22;4991214;28;20121;-60
2021/06/29 01:38:44;;;;;;;15.87;7.70;;;;;;;16.26;62.14;100851.88;4981128;28;20299;-60
2021/06/29 01:41:13;;;;;;;19.53;7.67;;;;;;;16.22;62.19;100862.94;4998404;28;20378;-60
2021/06/29 01:46:16;;;;;;;14.47;7.70;;;;;;;16.15;62.28;100842.78;4986735;28;20050;-60
2021/06/29 01:48:48;;;;;;;18.50;8.27;;;;;;;16.05;62.15;100831.72;4978822;28;20046;-60
2021/06/29 01:51:16;;;;;;;16.17;7.43;;;;;;;16.11;62.34;100847.38;4992641;28;20137;-61
2021/06/29 01:53:45;;;;;;;19.23;7.80;;;;;;;16.15;62.46;100853.25;4993241;28;20590;-61
2021/06/29 01:56:16;;;;;;;19.58;8.45;;;;;;;16.14;62.45;100852.41;4986991;28;20550;-61
2021/06/29 01:58:53;;;;;;;23.33;7.63;;;;;;;16.11;62.67;100844.56;4979779;28;20039;-60
2021/06/29 02:01:21;;;;;;;16.33;6.53;;;;;;;16.08;62.64;100848.84;4990131;28;20053;-60
2021/06/29 02:03:48;;;;;;;16.53;6.50;;;;;;;16.09;62.66;100838.41;4991655;28;20456;-60
2021/06/29 02:06:16;;;;;;;16.17;7.87;;;;;;;16.12;62.49;100843.41;4994377;28;20122;-60
2021/06/29 02:08:44;;;;;;;17.33;7.73;;;;;;;16.11;62.87;100838.94;4990002;28;20519;-62
2021/06/29 02:11:11;;;;;;;17.83;7.23;;;;;;;16.11;62.59;100836.94;4985161;28;20050;-62
2021/06/29 02:13:39;;;;;;;24.40;8.10;;;;;;;16.13;62.95;100833.81;4975377;28;20042;-62
2021/06/29 02:16:06;;;;;;;17.03;7.27;;;;;;;16.14;62.81;100835.50;4982418;28;20081;-62
2021/06/29 02:18:33;;;;;;;17.37;9.17;;;;;;;16.07;62.83;100818.19;4990445;28;20125;-62
2021/06/29 02:21:01;;;;;;;22.50;7.17;;;;;;;16.15;62.72;100830.69;4989306;28;20505;-62
2021/06/29 02:23:28;;;;;;;17.30;7.87;;;;;;;16.13;62.67;100816.91;4999616;28;20050;-62
2021/06/29 02:25:55;;;;;;;17.60;7.93;;;;;;;16.10;62.60;100812.75;4994213;28;20126;-62
2021/06/29 02:28:22;;;;;;;16.60;7.87;;;;;;;16.15;62.79;100828.72;4996761;28;20474;-61
2021/06/29 02:30:49;;;;;;;25.53;8.77;;;;;;;15.99;62.61;100793.53;4999423;28;20046;-61
2021/06/29 02:33:16;;;;;;;18.17;7.07;;;;;;;16.15;62.80;100820.25;4979106;28;20051;-61
2021/06/29 02:35:43;;;;;;;19.17;7.17;;;;;;;16.15;62.54;100814.63;4983709;28;20078;-63
2021/06/29 02:38:10;;;;;;;16.83;7.17;;;;;;;16.07;62.79;100806.91;4990470;28;20125;-62
2021/06/29 02:40:37;;;;;;;17.00;7.57;;;;;;;15.92;62.61;100784.66;4996209;28;20077;-63
2021/06/29 02:43:03;;;;;;;15.03;6.50;;;;;;;16.07;62.63;100812.53;5003555;28;20144;-63
2021/06/29 02:45:30;;;;;;;21.87;7.80;;;;;;;16.08;62.46;100811.38;4995710;28;20169;-63
2021/06/29 02:47:58;;;;;;;12.63;6.30;;;;;;;16.06;62.68;100813.66;4980749;28;20522;-63
2021/06/29 02:50:25;;;;;;;14.13;6.73;;;;;;;16.03;62.50;100811.47;4987569;28;20129;-62
2021/06/29 02:52:52;;;;;;;18.63;7.13;;;;;;;16.08;62.47;100815.03;4989794;28;20114;-62
2021/06/29 02:55:19;;;;;;;17.13;8.10;;;;;;;16.06;62.40;100813.66;5004404;28;20050;-62
2021/06/29 02:57:46;;;;;;;19.23;7.77;;;;;;;16.04;62.33;100807.53;4986740;28;20100;-62
2021/06/29 03:00:18;;;;;;;12.67;7.20;;;;;;;15.92;62.56;100787.47;4979732;28;20590;-64
2021/06/29 03:02:46;;;;;;;20.17;7.13;;;;;;;15.95;62.29;100809.38;4979669;28;20581;-63
2021/06/29 03:05:14;;;;;;;16.30;7.53;;;;;;;15.93;62.33;100806.03;4990389;28;20129;-63
2021/06/29 03:07:43;;;;;;;17.53;6.73;;;;;;;15.90;62.34;100801.00;4990610;28;20579;-63
2021/06/29 03:10:11;;;;;;;13.93;7.13;;;;;;;15.90;62.43;100795.38;4983180;28;20126;-63
2021/06/29 03:12:38;;;;;;;13.90;7.00;;;;;;;15.86;62.26;100784.75;4983340;28;20093;-63
2021/06/29 03:15:06;;;;;;;17.07;7.20;;;;;;;15.84;62.44;100795.50;5001342;28;20097;-63
2021/06/29 03:17:33;;;;;;;15.57;6.37;;;;;;;15.81;62.19;100790.47;4983608;28;20231;-64
2021/06/29 03:20:01;;;;;;;16.33;7.87;;;;;;;15.85;62.33;100794.34;4985015;28;20085;-63
2021/06/29 03:22:28;;;;;;;15.67;6.37;;;;;;;15.85;62.39;100796.31;5002691;28;20597;-64
2021/06/29 03:24:55;;;;;;;13.23;6.80;;;;;;;15.84;62.47;100786.22;4986796;28;20129;-64
2021/06/29 03:27:22;;;;;;;12.93;6.80;;;;;;;15.52;62.41;100745.66;4974976;28;20134;-64
2021/06/29 03:29:49;;;;;;;15.73;7.23;;;;;;;15.71;62.37;100784.19;4998878;28;20133;-64
2021/06/29 03:32:16;;;;;;;14.87;6.97;;;;;;;15.70;62.65;100796.63;4985151;28;20130;-64
2021/06/29 03:34:43;;;;;;;18.83;7.80;;;;;;;15.71;62.60;100793.47;4990796;28;20121;-64
2021/06/29 03:37:10;;;;;;;15.47;7.17;;;;;;;15.71;62.48;100778.56;4985395;28;20096;-65
2021/06/29 03:39:37;;;;;;;16.33;7.30;;;;;;;15.76;62.46;100784.09;4983598;28;20121;-63
2021/06/29 03:42:04;;;;;;;21.50;7.83;;;;;;;15.75;62.45;100777.63;4990108;28;20546;-63
2021/06/29 03:44:31;;;;;;;17.57;7.17;;;;;;;15.63;62.54;100764.03;4993115;28;20129;-63
2021/06/29 03:46:58;;;;;;;17.03;6.77;;;;;;;15.67;62.57;100771.88;4985787;28;20146;-61
2021/06/29 03:49:25;;;;;;;14.93;7.33;;;;;;;15.72;62.38;100775.44;4985401;28;20545;-62
2021/06/29 03:51:53;;;;;;;12.83;6.80;;;;;;;15.54;62.41;100748.16;4991232;28;20537;-59
2021/06/29 03:54:20;;;;;;;14.73;7.43;;;;;;;15.68;62.55;100771.56;4995210;28;20080;-59
2021/06/29 03:56:47;;;;;;;17.50;6.53;;;;;;;15.68;62.44;100779.19;4982832;28;20995;-60
2021/06/29 03:59:14;;;;;;;15.07;6.83;;;;;;;15.55;62.45;100761.91;5006876;28;20122;-59
2021/06/29 04:01:41;;;;;;;17.97;7.67;;;;;;;15.50;62.44;100758.38;4988178;28;20046;-61
2021/06/29 04:04:09;;;;;;;18.67;8.33;;;;;;;15.33;62.57;100731.63;4985157;28;20047;-61
2021/06/29 04:06:37;;;;;;;17.37;7.93;;;;;;;15.61;62.71;100773.91;4985514;28;20137;-64
2021/06/29 04:09:07;;;;;;;21.10;8.17;;;;;;;15.59;62.51;100767.78;4996905;28;20054;-65
2021/06/29 04:11:35;;;;;;;20.58;7.32;;;;;;;15.57;62.66;100761.63;4992390;28;20561;-67
2021/06/29 04:14:02;;;;;;;25.30;8.03;;;;;;;15.58;62.54;100771.72;5007234;28;20138;-65
2021/06/29 04:16:29;;;;;;;22.80;7.80;;;;;;;15.53;62.53;100780.28;4988851;28;20133;-66
2021/06/29 04:18:56;;;;;;;18.10;8.10;;;;;;;15.37;62.44;100755.19;4991500;28;20190;-67
2021/06/29 04:21:23;;;;;;;13.47;7.27;;;;;;;15.50;62.55;100775.25;4994760;28;20126;-63
2021/06/29 04:23:50;;;;;;;25.77;8.47;;;;;;;15.39;62.59;100769.81;4981063;28;20046;-64
2021/06/29 04:26:18;;;;;;;14.07;7.43;;;;;;;15.36;62.45;100775.22;4992767;28;20074;-64
2021/06/29 04:28:46;;;;;;;17.03;7.57;;;;;;;15.33;62.48;100776.66;4982777;28;20078;-64
2021/06/29 04:31:13;;;;;;;22.83;9.17;;;;;;;15.31;62.71;100783.72;4993456;28;20050;-64
2021/06/29 04:33:40;;;;;;;18.50;7.80;;;;;;;15.27;62.85;100788.28;4995305;28;20046;-64
2021/06/29 04:36:07;;;;;;;16.47;8.50;;;;;;;15.10;62.74;100780.41;4996590;28;20086;-65
2021/06/29 04:38:34;;;;;;;24.30;10.10;;;;;;;15.21;62.92;100790.34;4991530;28;20101;-65
2021/06/29 04:41:02;;;;;;;18.13;8.13;;;;;;;14.92;63.03;100754.81;4991557;28;20494;-65
2021/06/29 04:43:30;;;;;;;19.10;8.80;;;;;;;15.16;63.01;100784.81;4992222;28;20130;-61
2021/06/29 04:45:57;;;;;;;21.07;8.77;;;;;;;15.17;63.19;100792.09;5000235;28;20461;-62
2021/06/29 04:48:24;;;;;;;24.70;9.73;;;;;;;15.11;63.30;100782.06;4989285;28;20047;-62
2021/06/29 04:50:51;;;;;;;19.40;9.20;;;;;;;15.06;63.47;100776.53;4985052;28;20506;-64
2021/06/29 04:53:18;;;;;;;30.43;8.77;;;;;;;15.22;63.06;100803.28;4997790;28;20569;-63
2021/06/29 04:55:45;;;;;;;17.53;7.87;;;;;;;15.21;63.46;100806.41;4993844;28;20074;-64
2021/06/29 04:58:12;;;;;;;22.07;9.07;;;;;;;15.17;63.48;100807.00;4997686;28;20125;-61
2021/06/29 05:00:44;;;;;;;16.37;7.87;;;;;;;15.21;63.62;100806.41;4975580;28;20130;-64
2021/06/29 05:03:13;;;;;;;20.80;9.30;;;;;;;15.19;63.56;100801.09;4998560;28;20054;-63
2021/06/29 05:05:40;;;;;;;19.37;9.87;;;;;;;15.07;63.77;100776.22;4985860;28;20411;-62
2021/06/29 05:08:09;;;;;;;21.00;9.07;;;;;;;15.24;63.80;100801.00;4988283;28;20558;-61
2021/06/29 05:10:36;;;;;;;20.52;8.40;;;;;;;15.20;63.48;100799.94;4983195;28;20130;-61
2021/06/29 05:13:03;;;;;;;22.27;8.30;;;;;;;15.27;63.71;100811.63;4986112;28;20623;-63
2021/06/29 05:15:30;;;;;;;21.50;8.23;;;;;;;15.31;63.54;100807.06;4988386;28;20065;-63
2021/06/29 05:17:57;;;;;;;16.80;8.60;;;;;;;15.19;63.33;100784.22;4992046;28;20121;-64
2021/06/29 05:20:24;;;;;;;22.27;9.50;;;;;;;15.35;63.27;100813.78;4985166;28;20097;-60
2021/06/29 05:22:51;;;;;;;19.30;8.47;;;;;;;15.38;63.30;100801.91;4993149;28;20142;-62
2021/06/29 05:25:18;;;;;;;19.70;8.57;;;;;;;15.39;63.28;100814.84;4993094;28;20076;-59
2021/06/29 05:27:45;;;;;;;23.43;9.50;;;;;;;15.40;63.17;100808.06;4985935;28;20181;-61
2021/06/29 05:30:13;;;;;;;26.00;9.83;;;;;;;15.18;63.40;100751.59;4994227;28;20039;-60
2021/06/29 05:32:39;;;;;;;23.60;8.57;;;;;;;15.59;63.18;100805.22;4991838;28;20130;-58
2021/06/29 05:35:07;;;;;;;17.63;8.57;;;;;;;15.65;63.19;100803.94;4989192;28;20038;-57
2021/06/29 05:37:34;;;;;;;14.80;7.83;;;;;;;15.64;63.05;100795.81;4988154;28;20440;-63
2021/06/29 05:40:01;;;;;;;16.70;7.97;;;;;;;15.66;62.95;100787.94;4995299;28;20054;-60
2021/06/29 05:42:28;;;;;;;20.43;8.90;;;;;;;15.84;62.93;100800.28;4988620;28;20077;-61
2021/06/29 05:44:55;;;;;;;17.13;9.03;;;;;;;16.01;62.59;100810.97;5005661;28;20128;-60
2021/06/29 05:47:22;;;;;;;21.33;8.67;;;;;;;16.17;62.52;100823.59;4987054;28;20050;-60
2021/06/29 05:49:49;;;;;;;12.33;6.60;;;;;;;16.29;62.49;100809.00;4979217;28;20176;-60
2021/06/29 05:52:17;;;;;;;16.23;7.83;;;;;;;16.44;62.39;100816.28;4991792;28;20136;-61
2021/06/29 05:54:44;;;;;;;14.87;7.27;;;;;;;16.59;61.82;100807.53;4994354;28;20049;-61
2021/06/29 05:57:13;;;;;;;19.57;8.00;;;;;;;16.64;61.88;100793.31;4992803;28;20628;-61
2021/06/29 05:59:41;;;;;;;19.07;8.37;;;;;;;16.87;61.72;100815.97;4992334;28;20122;-61
2021/06/29 06:02:09;;;;;;;15.47;7.77;;;;;;;16.90;61.77;100804.88;4986263;28;20134;-61
2021/06/29 06:04:36;;;;;;;16.97;7.87;;;;;;;16.76;61.67;100796.47;4999242;28;20070;-57
2021/06/29 06:07:06;;;;;;;17.83;7.60;;;;;;;16.84;61.86;100802.50;4981009;28;20050;-59
2021/06/29 06:09:33;;;;;;;18.63;7.80;;;;;;;16.93;62.04;100806.25;4990973;28;20299;-60
2021/06/29 06:12:03;;;;;;;;;;;;;;;17.08;61.84;100808.69;4991616;28;20491;-63
2021/06/29 06:14:30;;;;;;;17.57;7.23;;;;;;;17.35;61.59;100819.06;4987568;28;20016;-63
2021/06/29 06:16:57;;;;;;;17.87;7.87;;;;;;;17.48;60.85;100801.22;4985845;28;20042;-69
2021/06/29 06:19:25;;;;;;;17.03;7.60;;;;;;;17.74;60.63;100809.03;4991034;28;20070;-62
2021/06/29 06:21:51;;;;;;;17.05;8.10;;;;;;;17.91;60.07;100813.97;4986035;28;20125;-65
2021/06/29 06:24:18;;;;;;;19.73;7.88;;;;;;;18.28;59.52;100820.31;4981608;28;20077;-65
2021/06/29 06:26:45;;;;;;;19.65;8.70;;;;;;;18.42;59.21;100801.25;4986447;28;20455;-65
2021/06/29 06:29:12;;;;;;;14.18;7.95;;;;;;;18.70;58.34;100796.19;4982847;28;20136;-66
2021/06/29 06:31:39;;;;;;;19.88;8.73;;;;;;;19.05;57.61;100805.59;4985156;28;20081;-66
2021/06/29 06:34:06;;;;;;;16.38;8.90;;;;;;;19.42;56.85;100795.59;4991237;28;20054;-66
2021/06/29 06:36:33;;;;;;;18.88;9.85;;;;;;;19.88;55.97;100824.38;4991361;28;20129;-64
2021/06/29 06:39:00;;;;;;;19.88;10.52;;;;;;;20.15;55.42;100817.47;5003737;28;20051;-64
2021/06/29 06:41:27;;;;;;;21.38;9.65;;;;;;;20.52;54.66;100827.19;4981911;28;20145;-63
2021/06/29 06:43:54;;;;;;;17.25;7.65;;;;;;;20.74;54.14;100820.38;4983370;28;20125;-64
2021/06/29 06:46:24;;;;;;;20.05;8.48;;;;;;;21.15;53.28;100823.63;4982471;28;20097;-64
2021/06/29 06:48:51;;;;;;;17.20;7.43;;;;;;;21.27;53.00;100823.72;4979250;28;20185;-64
2021/06/29 06:51:18;;;;;;;20.20;7.28;;;;;;;21.47;52.36;100817.22;4980561;28;20137;-64
2021/06/29 06:53:46;;;;;;;12.70;7.18;;;;;;;21.65;52.30;100817.06;4987336;28;20443;-64
2021/06/29 06:56:16;;;;;;;19.88;7.68;;;;;;;21.87;51.79;100836.53;4982790;28;20102;-64
2021/06/29 06:58:46;;;;;;;;;;;;;;;21.93;52.78;100814.41;4984456;28;20082;-65
2021/06/29 07:01:15;;;;;;;23.10;9.07;;;;;;;22.24;51.38;100823.28;4987593;28;20000;-64
2021/06/29 07:03:43;;;;;;;18.65;8.43;;;;;;;22.53;50.11;100815.72;4980354;28;20059;-64
2021/06/29 07:06:12;;;;;;;20.52;8.88;;;;;;;22.69;49.75;100825.19;4973398;28;20133;-64
2021/06/29 07:08:39;;;;;;;13.65;8.55;;;;;;;22.86;49.10;100824.13;4968313;28;20129;-64
2021/06/29 07:11:07;;;;;;;12.55;7.20;;;;;;;23.00;48.59;100820.09;4983846;28;20083;-71
2021/06/29 07:13:35;;;;;;;17.30;6.70;;;;;;;23.32;48.32;100818.25;4990935;28;20108;-70
2021/06/29 07:16:03;;;;;;;16.52;8.43;;;;;;;23.63;47.43;100820.41;4990592;28;20046;-70
2021/06/29 07:18:31;;;;;;;19.20;9.07;;;;;;;23.90;47.08;100824.47;5007099;28;20085;-71
2021/06/29 07:20:57;;;;;;;27.00;7.75;;;;;;;23.95;46.76;100826.22;4994409;28;20069;-70
2021/06/29 07:23:24;;;;;;;23.17;7.65;;;;;;;24.00;46.13;100834.50;4994064;28;20538;-70
2021/06/29 07:25:51;;;;;;;16.23;8.43;;;;;;;24.00;46.27;100828.78;4994326;28;20137;-71
2021/06/29 07:28:18;;;;;;;14.18;7.65;;;;;;;24.05;46.25;100832.22;4993831;28;20054;-71
2021/06/29 07:30:45;;;;;;;15.23;7.18;;;;;;;24.32;45.34;100824.78;4995435;28;20082;-71
2021/06/29 07:33:12;;;;;;;14.65;7.28;;;;;;;24.75;44.82;100833.63;4996193;28;20141;-71
2021/06/29 07:35:39;;;;;;;13.95;7.10;;;;;;;25.00;44.49;100823.66;4995244;28;20527;-70
2021/06/29 07:38:07;;;;;;;12.90;7.28;;;;;;;25.12;43.80;100824.75;4995105;28;20097;-71
2021/06/29 07:40:35;;;;;;;18.60;6.30;;;;;;;25.08;44.12;100820.97;4990866;28;20054;-71
2021/06/29 07:43:03;;;;;;;18.80;7.43;;;;;;;25.13;43.51;100824.41;4995167;28;20085;-71
2021/06/29 07:45:31;;;;;;;13.82;5.60;;;;;;;25.19;43.17;100816.34;4994051;28;20487;-71
2021/06/29 07:48:01;;;;;;;11.65;5.68;;;;;;;25.29;42.82;100816.56;4995319;28;20081;-71
2021/06/29 07:50:30;;;;;;;12.80;5.55;;;;;;;25.52;42.32;100815.84;4995180;28;20066;-71
2021/06/29 07:52:59;;;;;;;12.57;6.40;;;;;;;25.69;41.91;100818.25;4995582;28;20089;-70
2021/06/29 07:55:26;;;;;;;13.77;6.10;;;;;;;25.82;42.13;100824.69;4995915;28;20080;-70
2021/06/29 07:57:53;;;;;;;11.38;5.63;;;;;;;26.09;41.69;100817.03;4995136;28;20133;-73
2021/06/29 08:00:21;;;;;;;11.75;5.20;;;;;;;25.97;41.54;100817.19;4995144;28;20047;-69
2021/06/29 08:02:51;;;;;;;10.13;5.32;;;;;;;26.08;41.17;100823.94;4995157;28;20085;-70
2021/06/29 08:05:18;;;;;;;9.48;5.93;;;;;;;26.20;40.64;100820.91;4975971;28;20050;-70
2021/06/29 08:07:45;;;;;;;9.40;5.57;;;;;;;26.38;40.86;100826.94;4994199;28;20074;-70
2021/06/29 08:10:12;;;;;;;15.13;6.30;;;;;;;26.71;40.36;100831.25;4994510;28;20082;-71
2021/06/29 08:12:39;;;;;;;13.40;6.78;;;;;;;26.92;39.50;100830.75;4997684;28;20086;-70
2021/06/29 08:15:10;;;;;;;13.93;7.03;;;;;;;26.80;39.66;100826.03;5004858;28;20248;-72
2021/06/29 08:17:45;;;;;;;14.88;6.60;;;;;;;26.57;40.07;100834.69;4996340;28;20047;-71
2021/06/29 08:20:16;;;;;;;11.98;5.85;;;;;;;26.58;40.14;100832.66;4994927;28;20043;-71
2021/06/29 08:22:50;;;;;;;11.55;5.32;;;;;;;26.77;39.65;100820.25;4995398;28;20046;-71
2021/06/29 08:25:18;;;;;;;13.18;5.70;;;;;;;26.91;39.15;100821.34;4994586;28;20499;-70
2021/06/29 08:27:45;;;;;;;14.35;6.78;;;;;;;26.94;39.46;100819.75;4997585;28;20089;-71
2021/06/29 08:30:14;;;;;;;14.80;7.07;;;;;;;27.23;38.69;100823.88;4989632;28;20051;-71
2021/06/29 08:32:42;;;;;;;15.98;6.68;;;;;;;27.28;38.64;100816.97;4990604;28;20498;-71
2021/06/29 08:35:11;;;;;;;14.60;7.07;;;;;;;27.47;38.28;100813.97;4987350;28;20414;-71
2021/06/29 08:37:40;;;;;;;13.35;7.20;;;;;;;27.34;38.37;100815.41;4988279;28;20558;-67
2021/06/29 08:40:10;;;;;;;12.27;7.35;;;;;;;27.09;38.49;100797.84;4984206;28;20145;-68
2021/06/29 08:42:39;;;;;;;13.65;7.03;;;;;;;27.34;38.78;100829.75;4987681;28;20046;-65
2021/06/29 08:45:09;;;;;;;11.30;7.38;;;;;;;27.55;37.95;100809.94;4985257;28;20583;-68
2021/06/29 08:47:37;;;;;;;13.32;7.03;;;;;;;27.80;37.84;100815.22;4984717;28;20070;-67
2021/06/29 08:50:06;;;;;;;13.25;6.82;;;;;;;28.11;37.09;100816.78;4984029;28;20092;-63
2021/06/29 08:52:33;;;;;;;15.32;7.20;;;;;;;28.21;36.81;100823.88;4983970;28;20118;-63
2021/06/29 08:55:01;;;;;;;12.63;7.15;;;;;;;28.14;36.98;100820.91;4984925;28;20077;-63
2021/06/29 08:57:28;;;;;;;12.30;7.00;;;;;;;28.11;36.83;100826.22;4985932;28;20074;-64
2021/06/29 08:59:56;;;;;;;11.77;6.13;;;;;;;28.26;37.10;100832.13;4983769;28;20074;-66
2021/06/29 09:02:23;;;;;;;13.95;6.40;;;;;;;28.62;36.32;100816.06;4978165;28;20074;-69
2021/06/29 09:04:56;;;;;;;15.27;7.07;;;;;;;28.71;35.92;100816.53;5003154;28;20129;-67
2021/06/29 09:07:24;;;;;;;14.00;6.75;;;;;;;28.62;36.07;100816.06;5005045;28;20133;-65
2021/06/29 09:09:57;;;;;;;17.85;7.47;;;;;;;28.24;35.65;100794.34;4989784;28;20078;-66
2021/06/29 09:12:47;;;;;;;14.98;7.63;;;;;;;27.65;36.45;100803.53;4990255;28;20078;-65
2021/06/29 09:15:33;;;;;;;10.90;6.25;;;;;;;27.34;37.32;100809.69;4990246;28;20056;-65
2021/06/29 09:18:06;;;;;;;14.48;6.65;;;;;;;27.92;36.82;100805.50;4991033;28;20085;-65
2021/06/29 09:20:44;;;;;;;13.80;6.72;;;;;;;28.35;36.25;100804.72;4987072;28;20141;-74
2021/06/29 09:23:18;;;;;;;16.38;6.28;;;;;;;28.56;36.03;100794.66;4983602;28;20074;-65
2021/06/29 09:25:49;;;;;;;10.48;6.63;;;;;;;28.99;34.96;100807.34;4998968;28;20097;-67
2021/06/29 09:28:21;;;;;;;10.63;6.07;;;;;;;28.98;35.18;100814.28;4974243;28;20226;-64
2021/06/29 09:31:02;;;;;;;12.38;6.03;;;;;;;28.55;35.22;100811.09;4981051;28;20073;-64
2021/06/29 09:33:31;;;;;;;9.27;5.50;;;;;;;27.83;35.74;100815.25;4974934;28;20085;-64
2021/06/29 09:36:01;;;;;;;10.15;5.22;;;;;;;27.31;36.22;100807.59;4990502;28;20046;-64
2021/06/29 09:38:32;;;;;;;12.23;6.00;;;;;;;27.25;36.44;100809.13;4985581;28;20526;-64
2021/06/29 09:41:05;;;;;;;14.20;5.68;;;;;;;27.06;36.71;100810.91;4984239;28;20086;-65
2021/06/29 09:43:40;;;;;;;10.50;5.95;;;;;;;26.73;36.72;100807.91;4979400;28;20141;-63
2021/06/29 09:46:10;;;;;;;8.57;5.18;;;;;;;26.69;37.11;100807.88;4986050;28;20478;-63
2021/06/29 09:48:48;;;;;;;10.38;4.90;;;;;;;27.35;36.40;100808.44;4994855;28;20142;-63
2021/06/29 09:51:35;;;;;;;11.02;5.15;;;;;;;27.49;36.27;100808.66;4986747;28;20510;-63
2021/06/29 09:54:08;;;;;;;10.93;5.90;;;;;;;27.72;36.21;100799.09;4998296;28;20355;-63
2021/06/29 09:56:39;;;;;;;8.07;5.28;;;;;;;28.47;35.51;100806.50;4983703;28;20050;-63
2021/06/29 09:59:17;;;;;;;8.15;5.28;;;;;;;28.91;34.81;100817.09;4986145;28;20574;-63
2021/06/29 10:01:45;;;;;;;9.55;4.85;;;;;;;29.34;34.58;100808.78;4985438;28;20411;-63
2021/06/29 10:04:12;;;;;;;9.88;5.22;;;;;;;29.97;33.83;100813.16;4990235;28;20072;-63
2021/06/29 10:06:39;;;;;;;11.65;6.03;;;;;;;30.60;32.81;100807.09;4984284;28;20117;-63
2021/06/29 10:09:12;;;;;;;10.57;6.00;;;;;;;31.20;32.68;100805.41;4984894;28;20042;-65
2021/06/29 10:11:40;;;;;;;12.05;6.22;;;;;;;31.58;31.88;100804.47;4992737;28;20046;-65
2021/06/29 10:14:09;;;;;;;15.30;6.53;;;;;;;31.22;31.43;100815.28;4992908;28;20078;-64
2021/06/29 10:16:45;;;;;;;12.85;6.82;;;;;;;30.55;32.31;100805.44;4990160;28;20046;-66
2021/06/29 10:21:54;;;;;;;11.05;5.75;;;;;;;29.61;33.01;100820.03;4992649;28;20093;-64
2021/06/29 10:24:24;;;;;;;16.20;6.40;;;;;;;29.69;32.97;100813.06;4992726;28;20458;-64
2021/06/29 10:26:56;;;;;;;8.05;5.25;;;;;;;29.52;33.41;100811.75;5007385;28;20125;-64
2021/06/29 10:29:25;;;;;;;12.57;6.00;;;;;;;29.86;32.99;100823.00;4992808;28;20046;-65
2021/06/29 10:32:04;;;;;;;9.30;5.60;;;;;;;29.91;33.55;100820.53;4992239;28;20081;-64
2021/06/29 10:34:32;;;;;;;12.25;6.18;;;;;;;29.60;33.41;100829.88;4992827;28;20089;-63
2021/06/29 10:36:58;;;;;;;15.95;5.68;;;;;;;29.61;33.22;100820.03;4991700;28;20056;-64
2021/06/29 10:39:28;;;;;;;11.85;5.32;;;;;;;29.60;33.16;100824.13;4992514;28;20052;-64
2021/06/29 10:42:14;;;;;;;9.55;4.55;;;;;;;29.46;33.91;100819.91;5007203;28;20137;-64
2021/06/29 10:44:47;;;;;;;9.65;5.28;;;;;;;29.54;33.31;100820.81;4991029;28;20541;-64
2021/06/29 10:47:25;;;;;;;12.52;5.55;;;;;;;29.57;33.37;100799.81;4990983;28;20087;-64
2021/06/29 10:49:54;;;;;;;9.38;5.40;;;;;;;29.87;32.94;100805.31;4990986;28;20046;-64
2021/06/29 10:52:23;;;;;;;12.40;5.03;;;;;;;30.17;32.98;100798.41;4991974;28;20130;-63
2021/06/29 10:54:59;;;;;;;12.35;5.63;;;;;;;30.58;32.61;100795.97;4991865;28;20085;-64
2021/06/29 10:57:38;;;;;;;10.75;5.47;;;;;;;30.83;32.49;100801.75;4992601;28;20104;-63
2021/06/29 11:00:27;;;;;;;7.88;4.60;;;;;;;31.15;31.93;100803.78;5007808;28;20077;-64
2021/06/29 11:02:57;;;;;;;8.73;4.53;;;;;;;31.41;31.12;100798.75;4973421;28;20089;-64
2021/06/29 11:05:27;;;;;;;9.48;5.13;;;;;;;31.50;30.75;100785.53;4988983;28;20125;-64
2021/06/29 11:08:15;;;;;;;8.90;4.60;;;;;;;31.27;31.31;100782.28;4991557;28;20086;-64
2021/06/29 11:10:48;;;;;;;14.00;4.60;;;;;;;31.06;30.90;100783.19;4991808;28;20137;-63
2021/06/29 11:13:17;;;;;;;9.18;5.38;;;;;;;31.26;30.71;100786.44;5007653;28;20073;-63
2021/06/29 11:15:53;;;;;;;8.13;5.43;;;;;;;31.45;31.37;100788.84;4989849;28;20134;-64
2021/06/29 11:18:40;;;;;;;8.10;4.80;;;;;;;31.48;31.39;100782.22;4991257;28;20502;-64
2021/06/29 11:21:09;;;;;;;12.32;5.53;;;;;;;31.74;31.13;100789.53;4990918;28;20042;-63
2021/06/29 11:23:38;;;;;;;8.43;5.45;;;;;;;31.85;30.92;100778.75;4992533;28;20137;-63
2021/06/29 11:26:11;;;;;;;12.85;5.15;;;;;;;31.95;30.63;100768.41;4998703;28;20047;-64
2021/06/29 11:29:07;;;;;;;10.40;5.43;;;;;;;31.99;30.63;100774.16;4991847;28;20042;-64
2021/06/29 11:31:35;;;;;;;7.47;4.72;;;;;;;31.88;29.93;100756.09;4991710;28;20487;-64
2021/06/29 11:34:07;;;;;;;8.32;4.80;;;;;;;31.53;30.00;100778.09;4992402;28;20054;-63